MMCU/CUU METAR and TAF weather

Enter ICAO airport designator
Station Type Date Time Source
MMCU METAR 2019/10/23 10:40 UTC NOAA

MMCU 231040Z 12005KT 10SM SKC 09/03 A3012 RMK RTS


Station Type Date Time Source
MMCU Decoded METAR 2019/10/23 10:40 UTC NOAA

Chihuahua International Airport, Mexico (MMCU) 28-42N 105-58W
Oct 23, 2019 - 06:40 AM EDT / 2019.10.23 1040 UTC
Wind: from the ESE (120 degrees) at 6 MPH (5 KT):0
Visibility: 10 mile(s):0
Sky conditions: clear
Temperature: 48 F (9 C)
Dew Point: 37 F (3 C)
Relative Humidity: 66%
Pressure (altimeter): 30.12 in. Hg (1019 hPa)
ob: MMCU 231040Z 12005KT 10SM SKC 09/03 A3012 RMK RTS
cycle: 10

Station Type Date Time Source
MMCU TAF 2019/10/23 06:47 UTC NOAA

TAF MMCU 230539Z 2306/2406 18007KT P6SM SKC
FM231800 20008KT P6SM SKC
BECMG 2403/2405 33004KT

Example: see airport list